Hartford, Vermont
Current Conditions -  °F | °C
As of 2:33 PM on Tuesday 21 Oct 2014 (Local Time) from KLEB Reporting Station
Overcast Overcast  
Wind Chill: 50°   Ceiling: 900
Heat Index: 50°   Visibility: 10mi
Dew Point: 45°   Wind: 7mph
Humidity: 83%   Direction: 350°N
Pressure: 29.96"   Gusts: NA
Location:  43.66°N, 72.34°W
Report Text: KLEB 211833Z 35006KT 10SM BKN009 OVC013 10/07 A2996 RMK AO2 CIG 006V011 T01000072
Loading
Personal Weather Stations






























Interactive Weather Map
Tropical Storm Tracking
New forecast layout! Learn more

10-Day Weather Forecast

Advertisements
Track Severe Weather on mobile